Acme, Wyoming
Current Conditions -  °F | °C
As of 7:53 PM on Saturday 25 Oct 2014 (Local Time) from KSHR Reporting Station
Clear Clear  
Wind Chill: 12°   Ceiling: Unl
Heat Index: 12°   Visibility: 10mi
Dew Point:   Wind: 5mph
Humidity: 55%   Direction: 270°W
Pressure: 29.76"   Gusts: NA
Location:  44.8885°N, 107.104°W
Report Text: KSHR 260153Z AUTO 27004KT 10SM CLR 12/03 A2976 RMK AO2 SLP090 T01170028 TSNO
Loading
Personal Weather Stations






























Interactive Weather Map
Tropical Storm Tracking
New forecast layout! Learn more

10-Day Weather Forecast

Advertisements
Track Severe Weather on mobile